< < Back
Terminal Aerodrome Forecast


Current Version              Previous Versions:   1  2  3  4  5  6  7  8  9  

Terminal Aerodrome Forecast

437
FTUS42 KFFC 271121
TAFMCN
TAF
KMCN 271121Z 2712/2812 32002KT P6SM SCT250
     FM271300 35008KT P6SM SCT250
     FM271500 36006KT P6SM SCT250
     FM280000 01005KT P6SM SCT250=



Latest METAR

279
SAUS80 KWBC 272100 RRB
MTRMCN
METAR KMCN 272053Z VRB04KT 10SM CLR 14/M01 A3031 RMK AO2 SLP265
T01391006 56016


USA.gov is the U.S. government's official web portal to all federal, state and local government web resources and services.